Terminal Aerodrome Forecast
Issued by NWS

Home | Current Version | Previous Version | Text Only | Print | Product List | Glossary On
Versions: 1 2 3 4 5 6 7 8 9 10 11 12
000
FTUS42 KILM 271132
TAFCRE
TAF
KCRE 271132Z 2712/2812 07006KT P6SM SCT030
     FM271700 12008KT P6SM FEW040
     FM280300 06002KT P6SM SCT050
      TEMPO 2808/2811 3SM BR
     FM281100 03006KT 6SM BR SCT008=

USA.gov is the U.S. government's official web portal to all federal, state and local government web resources and services.